sensor_id;sensor_type;location;lat;lon;timestamp;P1;durP1;ratioP1;P2;durP2;ratioP2
35578;SDS011;21687;48.900;9.188;2023-06-14T00:00:16;4.20;;;3.57;;
35578;SDS011;21687;48.900;9.188;2023-06-14T00:02:42;4.10;;;3.70;;
35578;SDS011;21687;48.900;9.188;2023-06-14T00:05:08;3.87;;;3.50;;
35578;SDS011;21687;48.900;9.188;2023-06-14T00:07:40;6.90;;;4.00;;
35578;SDS011;21687;48.900;9.188;2023-06-14T00:10:13;5.07;;;4.10;;
35578;SDS011;21687;48.900;9.188;2023-06-14T00:12:40;4.13;;;3.70;;
35578;SDS011;21687;48.900;9.188;2023-06-14T00:15:06;5.30;;;4.07;;
35578;SDS011;21687;48.900;9.188;2023-06-14T00:17:34;8.70;;;4.03;;
35578;SDS011;21687;48.900;9.188;2023-06-14T00:20:02;4.30;;;3.90;;
35578;SDS011;21687;48.900;9.188;2023-06-14T00:22:33;4.90;;;4.07;;
35578;SDS011;21687;48.900;9.188;2023-06-14T00:25:01;4.80;;;4.30;;
35578;SDS011;21687;48.900;9.188;2023-06-14T00:27:28;4.57;;;4.03;;
35578;SDS011;21687;48.900;9.188;2023-06-14T00:29:54;5.43;;;4.10;;
35578;SDS011;21687;48.900;9.188;2023-06-14T00:32:22;5.03;;;3.93;;
35578;SDS011;21687;48.900;9.188;2023-06-14T00:34:51;5.40;;;4.10;;
35578;SDS011;21687;48.900;9.188;2023-06-14T00:37:17;5.30;;;4.30;;
35578;SDS011;21687;48.900;9.188;2023-06-14T00:39:43;6.50;;;4.63;;
35578;SDS011;21687;48.900;9.188;2023-06-14T00:42:10;6.80;;;4.50;;
35578;SDS011;21687;48.900;9.188;2023-06-14T00:44:36;8.03;;;4.67;;
35578;SDS011;21687;48.900;9.188;2023-06-14T00:47:02;5.67;;;4.23;;
35578;SDS011;21687;48.900;9.188;2023-06-14T00:49:29;4.30;;;3.87;;
35578;SDS011;21687;48.900;9.188;2023-06-14T00:51:56;7.93;;;4.50;;
35578;SDS011;21687;48.900;9.188;2023-06-14T00:54:22;5.30;;;4.43;;
35578;SDS011;21687;48.900;9.188;2023-06-14T00:56:48;6.13;;;4.50;;
35578;SDS011;21687;48.900;9.188;2023-06-14T00:59:15;6.27;;;4.30;;
35578;SDS011;21687;48.900;9.188;2023-06-14T01:01:42;6.10;;;4.27;;
35578;SDS011;21687;48.900;9.188;2023-06-14T01:04:08;5.90;;;4.13;;
35578;SDS011;21687;48.900;9.188;2023-06-14T01:06:44;7.03;;;4.20;;
35578;SDS011;21687;48.900;9.188;2023-06-14T01:12:23;5.13;;;4.10;;
35578;SDS011;21687;48.900;9.188;2023-06-14T01:14:53;5.50;;;4.53;;
35578;SDS011;21687;48.900;9.188;2023-06-14T01:17:22;6.47;;;4.90;;
35578;SDS011;21687;48.900;9.188;2023-06-14T01:19:48;10.83;;;4.70;;
35578;SDS011;21687;48.900;9.188;2023-06-14T01:22:24;6.20;;;4.23;;
35578;SDS011;21687;48.900;9.188;2023-06-14T01:24:51;5.63;;;4.30;;
35578;SDS011;21687;48.900;9.188;2023-06-14T01:27:23;4.50;;;3.90;;
35578;SDS011;21687;48.900;9.188;2023-06-14T01:29:53;5.90;;;4.10;;
35578;SDS011;21687;48.900;9.188;2023-06-14T01:32:24;5.20;;;4.23;;
35578;SDS011;21687;48.900;9.188;2023-06-14T01:34:53;4.87;;;4.17;;
35578;SDS011;21687;48.900;9.188;2023-06-14T01:37:20;5.57;;;4.30;;
35578;SDS011;21687;48.900;9.188;2023-06-14T01:39:48;5.30;;;4.67;;
35578;SDS011;21687;48.900;9.188;2023-06-14T01:42:15;5.00;;;4.23;;
35578;SDS011;21687;48.900;9.188;2023-06-14T01:44:43;6.07;;;4.80;;
35578;SDS011;21687;48.900;9.188;2023-06-14T01:47:11;6.00;;;3.83;;
35578;SDS011;21687;48.900;9.188;2023-06-14T01:49:39;6.47;;;5.00;;
35578;SDS011;21687;48.900;9.188;2023-06-14T01:52:05;6.40;;;4.87;;
35578;SDS011;21687;48.900;9.188;2023-06-14T01:54:34;8.60;;;4.47;;
35578;SDS011;21687;48.900;9.188;2023-06-14T01:57:03;5.90;;;4.23;;
35578;SDS011;21687;48.900;9.188;2023-06-14T01:59:29;5.90;;;4.00;;
35578;SDS011;21687;48.900;9.188;2023-06-14T02:01:56;4.80;;;4.40;;
35578;SDS011;21687;48.900;9.188;2023-06-14T02:04:22;4.87;;;4.20;;
35578;SDS011;21687;48.900;9.188;2023-06-14T02:06:48;5.03;;;4.17;;
35578;SDS011;21687;48.900;9.188;2023-06-14T02:09:15;4.43;;;3.80;;
35578;SDS011;21687;48.900;9.188;2023-06-14T02:11:42;4.63;;;4.00;;
35578;SDS011;21687;48.900;9.188;2023-06-14T02:14:08;6.10;;;4.50;;
35578;SDS011;21687;48.900;9.188;2023-06-14T02:16:37;5.53;;;3.90;;
35578;SDS011;21687;48.900;9.188;2023-06-14T02:19:04;9.13;;;4.47;;
35578;SDS011;21687;48.900;9.188;2023-06-14T02:21:30;5.60;;;4.43;;
35578;SDS011;21687;48.900;9.188;2023-06-14T02:23:57;4.50;;;3.90;;
35578;SDS011;21687;48.900;9.188;2023-06-14T02:26:23;5.87;;;4.30;;
35578;SDS011;21687;48.900;9.188;2023-06-14T02:28:50;6.20;;;4.67;;
35578;SDS011;21687;48.900;9.188;2023-06-14T02:31:16;5.30;;;4.20;;
35578;SDS011;21687;48.900;9.188;2023-06-14T02:33:43;5.07;;;4.50;;
35578;SDS011;21687;48.900;9.188;2023-06-14T02:36:09;5.47;;;4.07;;
35578;SDS011;21687;48.900;9.188;2023-06-14T02:38:35;6.17;;;4.53;;
35578;SDS011;21687;48.900;9.188;2023-06-14T02:41:02;6.40;;;4.57;;
35578;SDS011;21687;48.900;9.188;2023-06-14T02:43:29;6.90;;;4.80;;
35578;SDS011;21687;48.900;9.188;2023-06-14T02:45:55;6.63;;;5.30;;
35578;SDS011;21687;48.900;9.188;2023-06-14T02:48:22;7.67;;;5.10;;
35578;SDS011;21687;48.900;9.188;2023-06-14T02:50:48;5.90;;;5.00;;
35578;SDS011;21687;48.900;9.188;2023-06-14T02:53:15;7.13;;;4.93;;
35578;SDS011;21687;48.900;9.188;2023-06-14T02:55:42;6.07;;;4.97;;
35578;SDS011;21687;48.900;9.188;2023-06-14T02:58:09;6.33;;;4.73;;
35578;SDS011;21687;48.900;9.188;2023-06-14T03:00:35;7.50;;;5.37;;
35578;SDS011;21687;48.900;9.188;2023-06-14T03:03:03;5.40;;;4.67;;
35578;SDS011;21687;48.900;9.188;2023-06-14T03:05:29;7.03;;;5.10;;
35578;SDS011;21687;48.900;9.188;2023-06-14T03:07:56;7.13;;;4.83;;
35578;SDS011;21687;48.900;9.188;2023-06-14T03:10:22;5.33;;;4.73;;
35578;SDS011;21687;48.900;9.188;2023-06-14T03:12:49;9.60;;;5.40;;
35578;SDS011;21687;48.900;9.188;2023-06-14T03:15:16;5.03;;;4.53;;
35578;SDS011;21687;48.900;9.188;2023-06-14T03:17:43;9.43;;;5.23;;
35578;SDS011;21687;48.900;9.188;2023-06-14T03:23:32;5.47;;;4.80;;
35578;SDS011;21687;48.900;9.188;2023-06-14T03:25:58;5.90;;;4.80;;
35578;SDS011;21687;48.900;9.188;2023-06-14T03:28:24;6.93;;;5.30;;
35578;SDS011;21687;48.900;9.188;2023-06-14T03:30:51;5.93;;;5.17;;
35578;SDS011;21687;48.900;9.188;2023-06-14T03:33:17;8.93;;;5.27;;
35578;SDS011;21687;48.900;9.188;2023-06-14T03:35:44;6.60;;;5.20;;
35578;SDS011;21687;48.900;9.188;2023-06-14T03:38:10;6.83;;;5.30;;
35578;SDS011;21687;48.900;9.188;2023-06-14T03:40:36;7.03;;;5.67;;
35578;SDS011;21687;48.900;9.188;2023-06-14T03:43:03;7.60;;;5.57;;
35578;SDS011;21687;48.900;9.188;2023-06-14T03:45:29;7.67;;;5.43;;
35578;SDS011;21687;48.900;9.188;2023-06-14T03:47:55;7.97;;;5.60;;
35578;SDS011;21687;48.900;9.188;2023-06-14T03:50:22;5.77;;;4.80;;
35578;SDS011;21687;48.900;9.188;2023-06-14T03:52:48;7.37;;;5.83;;
35578;SDS011;21687;48.900;9.188;2023-06-14T03:55:15;5.97;;;5.17;;
35578;SDS011;21687;48.900;9.188;2023-06-14T03:57:42;11.03;;;5.07;;
35578;SDS011;21687;48.900;9.188;2023-06-14T04:00:08;6.73;;;4.87;;
35578;SDS011;21687;48.900;9.188;2023-06-14T04:02:36;8.17;;;5.30;;
35578;SDS011;21687;48.900;9.188;2023-06-14T04:05:03;9.60;;;5.43;;
35578;SDS011;21687;48.900;9.188;2023-06-14T04:07:33;8.20;;;4.60;;
35578;SDS011;21687;48.900;9.188;2023-06-14T04:10:06;8.30;;;5.00;;
35578;SDS011;21687;48.900;9.188;2023-06-14T04:12:33;12.53;;;5.60;;
35578;SDS011;21687;48.900;9.188;2023-06-14T04:14:59;6.03;;;4.73;;
35578;SDS011;21687;48.900;9.188;2023-06-14T04:17:26;5.57;;;4.80;;
35578;SDS011;21687;48.900;9.188;2023-06-14T04:19:52;8.60;;;4.33;;
35578;SDS011;21687;48.900;9.188;2023-06-14T04:22:19;8.07;;;5.40;;
35578;SDS011;21687;48.900;9.188;2023-06-14T04:24:45;6.83;;;4.53;;
35578;SDS011;21687;48.900;9.188;2023-06-14T04:27:11;9.03;;;4.87;;
35578;SDS011;21687;48.900;9.188;2023-06-14T04:29:39;8.60;;;4.90;;
35578;SDS011;21687;48.900;9.188;2023-06-14T04:32:08;6.93;;;4.90;;
35578;SDS011;21687;48.900;9.188;2023-06-14T04:34:35;6.13;;;4.77;;
35578;SDS011;21687;48.900;9.188;2023-06-14T04:37:02;6.70;;;4.87;;
35578;SDS011;21687;48.900;9.188;2023-06-14T04:39:29;8.13;;;5.10;;
35578;SDS011;21687;48.900;9.188;2023-06-14T04:41:55;8.43;;;4.67;;
35578;SDS011;21687;48.900;9.188;2023-06-14T04:44:23;9.63;;;5.60;;
35578;SDS011;21687;48.900;9.188;2023-06-14T04:46:58;7.53;;;5.13;;
35578;SDS011;21687;48.900;9.188;2023-06-14T04:49:24;5.10;;;4.60;;
35578;SDS011;21687;48.900;9.188;2023-06-14T04:51:52;6.30;;;4.53;;
35578;SDS011;21687;48.900;9.188;2023-06-14T04:54:26;5.83;;;4.90;;
35578;SDS011;21687;48.900;9.188;2023-06-14T04:56:56;9.77;;;5.40;;
35578;SDS011;21687;48.900;9.188;2023-06-14T04:59:22;8.33;;;4.90;;
35578;SDS011;21687;48.900;9.188;2023-06-14T05:01:49;7.13;;;4.50;;
35578;SDS011;21687;48.900;9.188;2023-06-14T05:04:16;5.70;;;4.27;;
35578;SDS011;21687;48.900;9.188;2023-06-14T05:06:44;4.80;;;4.40;;
35578;SDS011;21687;48.900;9.188;2023-06-14T05:09:11;5.07;;;4.53;;
35578;SDS011;21687;48.900;9.188;2023-06-14T05:11:38;4.70;;;4.20;;
35578;SDS011;21687;48.900;9.188;2023-06-14T05:14:05;6.90;;;4.50;;
35578;SDS011;21687;48.900;9.188;2023-06-14T05:16:31;8.27;;;4.30;;
35578;SDS011;21687;48.900;9.188;2023-06-14T05:18:58;5.20;;;4.33;;
35578;SDS011;21687;48.900;9.188;2023-06-14T05:21:24;4.63;;;4.10;;
35578;SDS011;21687;48.900;9.188;2023-06-14T05:23:51;6.10;;;4.20;;
35578;SDS011;21687;48.900;9.188;2023-06-14T05:26:17;4.33;;;3.93;;
35578;SDS011;21687;48.900;9.188;2023-06-14T05:28:44;7.17;;;4.70;;
35578;SDS011;21687;48.900;9.188;2023-06-14T05:31:10;8.93;;;4.80;;
35578;SDS011;21687;48.900;9.188;2023-06-14T05:33:36;8.07;;;4.73;;
35578;SDS011;21687;48.900;9.188;2023-06-14T05:36:02;5.20;;;4.40;;
35578;SDS011;21687;48.900;9.188;2023-06-14T05:38:29;6.00;;;4.73;;
35578;SDS011;21687;48.900;9.188;2023-06-14T05:40:55;6.40;;;5.30;;
35578;SDS011;21687;48.900;9.188;2023-06-14T05:43:21;7.23;;;4.63;;
35578;SDS011;21687;48.900;9.188;2023-06-14T05:45:48;8.87;;;4.73;;
35578;SDS011;21687;48.900;9.188;2023-06-14T05:48:14;5.50;;;4.70;;
35578;SDS011;21687;48.900;9.188;2023-06-14T05:50:40;5.07;;;4.57;;
35578;SDS011;21687;48.900;9.188;2023-06-14T05:53:06;5.20;;;4.40;;
35578;SDS011;21687;48.900;9.188;2023-06-14T05:55:33;6.23;;;4.40;;
35578;SDS011;21687;48.900;9.188;2023-06-14T05:57:59;4.50;;;4.10;;
35578;SDS011;21687;48.900;9.188;2023-06-14T06:00:25;6.33;;;4.30;;
35578;SDS011;21687;48.900;9.188;2023-06-14T06:02:52;8.17;;;4.47;;
35578;SDS011;21687;48.900;9.188;2023-06-14T06:05:22;6.20;;;4.90;;
35578;SDS011;21687;48.900;9.188;2023-06-14T06:07:48;6.47;;;4.13;;
35578;SDS011;21687;48.900;9.188;2023-06-14T06:10:16;5.83;;;4.33;;
35578;SDS011;21687;48.900;9.188;2023-06-14T06:12:42;6.87;;;4.47;;
35578;SDS011;21687;48.900;9.188;2023-06-14T06:15:08;5.70;;;4.40;;
35578;SDS011;21687;48.900;9.188;2023-06-14T06:17:38;6.40;;;3.97;;
35578;SDS011;21687;48.900;9.188;2023-06-14T06:20:05;5.83;;;4.17;;
35578;SDS011;21687;48.900;9.188;2023-06-14T06:22:36;5.83;;;4.03;;
35578;SDS011;21687;48.900;9.188;2023-06-14T06:25:03;7.93;;;4.10;;
35578;SDS011;21687;48.900;9.188;2023-06-14T06:27:30;5.07;;;4.57;;
35578;SDS011;21687;48.900;9.188;2023-06-14T06:29:56;5.20;;;4.67;;
35578;SDS011;21687;48.900;9.188;2023-06-14T06:32:22;5.93;;;4.60;;
35578;SDS011;21687;48.900;9.188;2023-06-14T06:34:49;4.80;;;4.30;;
35578;SDS011;21687;48.900;9.188;2023-06-14T06:37:15;7.67;;;4.80;;
35578;SDS011;21687;48.900;9.188;2023-06-14T06:39:41;6.20;;;4.33;;
35578;SDS011;21687;48.900;9.188;2023-06-14T06:42:08;4.90;;;4.43;;
35578;SDS011;21687;48.900;9.188;2023-06-14T06:44:35;5.30;;;4.37;;
35578;SDS011;21687;48.900;9.188;2023-06-14T06:47:02;6.77;;;3.50;;
35578;SDS011;21687;48.900;9.188;2023-06-14T06:49:28;10.93;;;4.13;;
35578;SDS011;21687;48.900;9.188;2023-06-14T06:51:59;8.33;;;4.00;;
35578;SDS011;21687;48.900;9.188;2023-06-14T06:54:30;6.87;;;3.80;;
35578;SDS011;21687;48.900;9.188;2023-06-14T06:56:56;8.10;;;4.50;;
35578;SDS011;21687;48.900;9.188;2023-06-14T06:59:23;4.53;;;3.90;;
35578;SDS011;21687;48.900;9.188;2023-06-14T07:01:50;6.47;;;3.97;;
35578;SDS011;21687;48.900;9.188;2023-06-14T07:04:16;5.63;;;4.00;;
35578;SDS011;21687;48.900;9.188;2023-06-14T07:06:43;5.90;;;4.10;;
35578;SDS011;21687;48.900;9.188;2023-06-14T07:09:12;6.93;;;4.30;;
35578;SDS011;21687;48.900;9.188;2023-06-14T07:11:40;7.00;;;3.93;;
35578;SDS011;21687;48.900;9.188;2023-06-14T07:14:08;5.73;;;4.20;;
35578;SDS011;21687;48.900;9.188;2023-06-14T07:16:35;5.70;;;4.50;;
35578;SDS011;21687;48.900;9.188;2023-06-14T07:19:02;4.80;;;3.83;;
35578;SDS011;21687;48.900;9.188;2023-06-14T07:21:28;4.63;;;3.63;;
35578;SDS011;21687;48.900;9.188;2023-06-14T07:23:55;5.47;;;3.80;;
35578;SDS011;21687;48.900;9.188;2023-06-14T07:26:21;4.67;;;4.03;;
35578;SDS011;21687;48.900;9.188;2023-06-14T07:28:48;6.80;;;4.23;;
35578;SDS011;21687;48.900;9.188;2023-06-14T07:31:15;4.73;;;4.20;;
35578;SDS011;21687;48.900;9.188;2023-06-14T07:33:43;7.20;;;4.37;;
35578;SDS011;21687;48.900;9.188;2023-06-14T07:36:10;6.33;;;3.97;;
35578;SDS011;21687;48.900;9.188;2023-06-14T07:38:36;6.07;;;4.40;;
35578;SDS011;21687;48.900;9.188;2023-06-14T07:41:03;7.13;;;4.40;;
35578;SDS011;21687;48.900;9.188;2023-06-14T07:43:29;6.70;;;4.33;;
35578;SDS011;21687;48.900;9.188;2023-06-14T07:45:55;7.47;;;4.33;;
35578;SDS011;21687;48.900;9.188;2023-06-14T07:48:22;8.77;;;4.57;;
35578;SDS011;21687;48.900;9.188;2023-06-14T07:50:48;4.53;;;3.77;;
35578;SDS011;21687;48.900;9.188;2023-06-14T07:53:14;5.43;;;3.90;;
35578;SDS011;21687;48.900;9.188;2023-06-14T07:55:41;6.00;;;4.13;;
35578;SDS011;21687;48.900;9.188;2023-06-14T07:58:08;7.47;;;4.33;;
35578;SDS011;21687;48.900;9.188;2023-06-14T08:00:35;8.43;;;4.03;;
35578;SDS011;21687;48.900;9.188;2023-06-14T08:03:02;4.90;;;4.40;;
35578;SDS011;21687;48.900;9.188;2023-06-14T08:05:29;7.03;;;4.40;;
35578;SDS011;21687;48.900;9.188;2023-06-14T08:07:55;7.10;;;4.43;;
35578;SDS011;21687;48.900;9.188;2023-06-14T08:10:22;7.23;;;4.40;;
35578;SDS011;21687;48.900;9.188;2023-06-14T08:12:48;6.00;;;4.00;;
35578;SDS011;21687;48.900;9.188;2023-06-14T08:15:15;7.87;;;4.70;;
35578;SDS011;21687;48.900;9.188;2023-06-14T08:17:42;6.03;;;4.80;;
35578;SDS011;21687;48.900;9.188;2023-06-14T08:20:10;4.73;;;3.63;;
35578;SDS011;21687;48.900;9.188;2023-06-14T08:22:37;5.70;;;4.73;;
35578;SDS011;21687;48.900;9.188;2023-06-14T08:25:04;6.03;;;4.07;;
35578;SDS011;21687;48.900;9.188;2023-06-14T08:27:31;5.60;;;4.40;;
35578;SDS011;21687;48.900;9.188;2023-06-14T08:29:58;6.20;;;4.87;;
35578;SDS011;21687;48.900;9.188;2023-06-14T08:32:24;4.70;;;4.13;;
35578;SDS011;21687;48.900;9.188;2023-06-14T08:34:51;5.43;;;4.43;;
35578;SDS011;21687;48.900;9.188;2023-06-14T08:37:17;6.23;;;4.17;;
35578;SDS011;21687;48.900;9.188;2023-06-14T08:39:44;5.50;;;4.43;;
35578;SDS011;21687;48.900;9.188;2023-06-14T08:42:10;5.03;;;4.03;;
35578;SDS011;21687;48.900;9.188;2023-06-14T08:44:37;9.07;;;4.13;;
35578;SDS011;21687;48.900;9.188;2023-06-14T08:47:03;5.07;;;4.53;;
35578;SDS011;21687;48.900;9.188;2023-06-14T08:49:33;5.70;;;4.70;;
35578;SDS011;21687;48.900;9.188;2023-06-14T08:52:01;7.33;;;4.40;;
35578;SDS011;21687;48.900;9.188;2023-06-14T08:54:28;5.73;;;4.17;;
35578;SDS011;21687;48.900;9.188;2023-06-14T08:57:01;4.40;;;4.00;;
35578;SDS011;21687;48.900;9.188;2023-06-14T08:59:32;5.10;;;3.80;;
35578;SDS011;21687;48.900;9.188;2023-06-14T09:02:05;7.07;;;4.17;;
35578;SDS011;21687;48.900;9.188;2023-06-14T09:04:31;5.40;;;4.77;;
35578;SDS011;21687;48.900;9.188;2023-06-14T09:06:58;5.07;;;3.73;;
35578;SDS011;21687;48.900;9.188;2023-06-14T09:09:25;6.27;;;4.13;;
35578;SDS011;21687;48.900;9.188;2023-06-14T09:11:52;5.77;;;4.03;;
35578;SDS011;21687;48.900;9.188;2023-06-14T09:14:19;6.23;;;4.17;;
35578;SDS011;21687;48.900;9.188;2023-06-14T09:16:46;4.50;;;3.90;;
35578;SDS011;21687;48.900;9.188;2023-06-14T09:19:25;5.20;;;4.20;;
35578;SDS011;21687;48.900;9.188;2023-06-14T09:21:52;5.07;;;4.20;;
35578;SDS011;21687;48.900;9.188;2023-06-14T09:24:18;6.03;;;4.03;;
35578;SDS011;21687;48.900;9.188;2023-06-14T09:26:48;4.13;;;3.73;;
35578;SDS011;21687;48.900;9.188;2023-06-14T09:29:17;5.67;;;4.10;;
35578;SDS011;21687;48.900;9.188;2023-06-14T09:31:47;4.60;;;4.20;;
35578;SDS011;21687;48.900;9.188;2023-06-14T09:34:13;4.00;;;3.70;;
35578;SDS011;21687;48.900;9.188;2023-06-14T09:36:42;4.27;;;3.87;;
35578;SDS011;21687;48.900;9.188;2023-06-14T09:39:08;5.07;;;3.93;;
35578;SDS011;21687;48.900;9.188;2023-06-14T09:41:35;4.73;;;3.67;;
35578;SDS011;21687;48.900;9.188;2023-06-14T09:44:05;5.57;;;3.60;;
35578;SDS011;21687;48.900;9.188;2023-06-14T09:46:33;5.27;;;3.73;;
35578;SDS011;21687;48.900;9.188;2023-06-14T09:49:01;6.63;;;3.80;;
35578;SDS011;21687;48.900;9.188;2023-06-14T09:51:28;3.93;;;3.63;;
35578;SDS011;21687;48.900;9.188;2023-06-14T09:53:58;4.60;;;3.60;;
35578;SDS011;21687;48.900;9.188;2023-06-14T09:56:27;8.80;;;3.60;;
35578;SDS011;21687;48.900;9.188;2023-06-14T09:58:55;8.13;;;2.93;;
35578;SDS011;21687;48.900;9.188;2023-06-14T10:01:27;4.10;;;3.63;;
35578;SDS011;21687;48.900;9.188;2023-06-14T10:04:03;4.03;;;3.57;;
35578;SDS011;21687;48.900;9.188;2023-06-14T10:06:31;3.77;;;3.47;;
35578;SDS011;21687;48.900;9.188;2023-06-14T10:09:02;5.27;;;3.47;;
35578;SDS011;21687;48.900;9.188;2023-06-14T10:11:32;5.63;;;3.30;;
35578;SDS011;21687;48.900;9.188;2023-06-14T10:14:00;5.07;;;3.77;;
35578;SDS011;21687;48.900;9.188;2023-06-14T10:16:31;3.80;;;3.40;;
35578;SDS011;21687;48.900;9.188;2023-06-14T10:19:21;5.70;;;3.57;;
35578;SDS011;21687;48.900;9.188;2023-06-14T10:21:58;5.40;;;3.77;;
35578;SDS011;21687;48.900;9.188;2023-06-14T10:24:30;3.77;;;3.17;;
35578;SDS011;21687;48.900;9.188;2023-06-14T10:27:03;3.53;;;3.23;;
35578;SDS011;21687;48.900;9.188;2023-06-14T10:30:21;5.23;;;3.40;;
35578;SDS011;21687;48.900;9.188;2023-06-14T10:32:22;4.27;;;3.40;;
35578;SDS011;21687;48.900;9.188;2023-06-14T10:34:57;4.73;;;3.50;;
35578;SDS011;21687;48.900;9.188;2023-06-14T10:37:30;3.80;;;3.23;;
35578;SDS011;21687;48.900;9.188;2023-06-14T10:39:57;6.57;;;3.70;;
35578;SDS011;21687;48.900;9.188;2023-06-14T10:42:27;4.50;;;3.27;;
35578;SDS011;21687;48.900;9.188;2023-06-14T10:44:57;3.70;;;3.17;;
35578;SDS011;21687;48.900;9.188;2023-06-14T10:47:28;3.70;;;3.23;;
35578;SDS011;21687;48.900;9.188;2023-06-14T10:52:32;3.43;;;3.13;;
35578;SDS011;21687;48.900;9.188;2023-06-14T10:57:44;4.83;;;3.10;;
35578;SDS011;21687;48.900;9.188;2023-06-14T11:00:11;3.53;;;3.23;;
35578;SDS011;21687;48.900;9.188;2023-06-14T11:05:54;3.27;;;3.00;;
35578;SDS011;21687;48.900;9.188;2023-06-14T11:08:37;5.27;;;3.30;;
35578;SDS011;21687;48.900;9.188;2023-06-14T11:11:21;6.00;;;3.27;;
35578;SDS011;21687;48.900;9.188;2023-06-14T11:13:50;3.40;;;3.10;;
35578;SDS011;21687;48.900;9.188;2023-06-14T11:16:17;3.27;;;2.97;;
35578;SDS011;21687;48.900;9.188;2023-06-14T11:18:46;5.07;;;3.03;;
35578;SDS011;21687;48.900;9.188;2023-06-14T11:21:15;5.47;;;3.40;;
35578;SDS011;21687;48.900;9.188;2023-06-14T11:23:48;4.77;;;3.30;;
35578;SDS011;21687;48.900;9.188;2023-06-14T11:26:16;6.53;;;3.40;;
35578;SDS011;21687;48.900;9.188;2023-06-14T11:28:57;3.60;;;3.27;;
35578;SDS011;21687;48.900;9.188;2023-06-14T11:31:25;3.57;;;3.27;;
35578;SDS011;21687;48.900;9.188;2023-06-14T11:33:53;6.53;;;3.20;;
35578;SDS011;21687;48.900;9.188;2023-06-14T11:36:21;4.60;;;3.37;;
35578;SDS011;21687;48.900;9.188;2023-06-14T11:38:48;3.00;;;2.80;;
35578;SDS011;21687;48.900;9.188;2023-06-14T11:41:15;4.73;;;3.20;;
35578;SDS011;21687;48.900;9.188;2023-06-14T11:43:41;3.50;;;3.20;;
35578;SDS011;21687;48.900;9.188;2023-06-14T11:46:14;6.53;;;2.97;;
35578;SDS011;21687;48.900;9.188;2023-06-14T11:48:42;3.50;;;3.10;;
35578;SDS011;21687;48.900;9.188;2023-06-14T11:51:08;3.10;;;2.80;;
35578;SDS011;21687;48.900;9.188;2023-06-14T11:53:36;6.47;;;3.30;;
35578;SDS011;21687;48.900;9.188;2023-06-14T11:56:02;4.33;;;3.13;;
35578;SDS011;21687;48.900;9.188;2023-06-14T11:58:29;5.07;;;3.30;;
35578;SDS011;21687;48.900;9.188;2023-06-14T12:00:56;6.77;;;3.30;;
35578;SDS011;21687;48.900;9.188;2023-06-14T12:03:23;6.97;;;3.23;;
35578;SDS011;21687;48.900;9.188;2023-06-14T12:05:50;3.80;;;3.33;;
35578;SDS011;21687;48.900;9.188;2023-06-14T12:08:34;6.07;;;3.30;;
35578;SDS011;21687;48.900;9.188;2023-06-14T12:11:11;3.37;;;2.93;;
35578;SDS011;21687;48.900;9.188;2023-06-14T12:13:41;7.07;;;3.37;;
35578;SDS011;21687;48.900;9.188;2023-06-14T12:16:09;3.60;;;3.30;;
35578;SDS011;21687;48.900;9.188;2023-06-14T12:18:37;3.80;;;3.27;;
35578;SDS011;21687;48.900;9.188;2023-06-14T12:21:05;3.40;;;3.10;;
35578;SDS011;21687;48.900;9.188;2023-06-14T12:23:38;3.77;;;3.13;;
35578;SDS011;21687;48.900;9.188;2023-06-14T12:26:05;3.53;;;3.23;;
35578;SDS011;21687;48.900;9.188;2023-06-14T12:28:32;3.67;;;3.30;;
35578;SDS011;21687;48.900;9.188;2023-06-14T12:30:58;4.37;;;3.10;;
35578;SDS011;21687;48.900;9.188;2023-06-14T12:33:24;3.00;;;2.80;;
35578;SDS011;21687;48.900;9.188;2023-06-14T12:35:53;4.20;;;3.17;;
35578;SDS011;21687;48.900;9.188;2023-06-14T12:38:22;4.40;;;3.07;;
35578;SDS011;21687;48.900;9.188;2023-06-14T12:40:49;5.00;;;3.60;;
35578;SDS011;21687;48.900;9.188;2023-06-14T12:43:15;3.40;;;3.10;;
35578;SDS011;21687;48.900;9.188;2023-06-14T12:45:41;4.10;;;3.70;;
35578;SDS011;21687;48.900;9.188;2023-06-14T12:48:08;5.73;;;3.50;;
35578;SDS011;21687;48.900;9.188;2023-06-14T12:50:34;4.13;;;3.10;;
35578;SDS011;21687;48.900;9.188;2023-06-14T12:53:00;7.97;;;3.20;;
35578;SDS011;21687;48.900;9.188;2023-06-14T12:55:27;3.87;;;3.57;;
35578;SDS011;21687;48.900;9.188;2023-06-14T12:57:53;5.60;;;3.40;;
35578;SDS011;21687;48.900;9.188;2023-06-14T13:00:20;4.37;;;3.00;;
35578;SDS011;21687;48.900;9.188;2023-06-14T13:02:47;4.90;;;3.53;;
35578;SDS011;21687;48.900;9.188;2023-06-14T13:05:13;7.40;;;3.63;;
35578;SDS011;21687;48.900;9.188;2023-06-14T13:07:39;5.40;;;3.20;;
35578;SDS011;21687;48.900;9.188;2023-06-14T13:10:06;3.60;;;3.30;;
35578;SDS011;21687;48.900;9.188;2023-06-14T13:12:32;3.37;;;3.03;;
35578;SDS011;21687;48.900;9.188;2023-06-14T13:14:59;5.40;;;3.37;;
35578;SDS011;21687;48.900;9.188;2023-06-14T13:17:26;5.30;;;3.17;;
35578;SDS011;21687;48.900;9.188;2023-06-14T13:19:52;5.73;;;3.60;;
35578;SDS011;21687;48.900;9.188;2023-06-14T13:22:18;4.90;;;3.30;;
35578;SDS011;21687;48.900;9.188;2023-06-14T13:24:45;3.77;;;3.27;;
35578;SDS011;21687;48.900;9.188;2023-06-14T13:27:11;4.23;;;3.30;;
35578;SDS011;21687;48.900;9.188;2023-06-14T13:29:39;4.47;;;3.00;;
35578;SDS011;21687;48.900;9.188;2023-06-14T13:32:06;4.00;;;3.33;;
35578;SDS011;21687;48.900;9.188;2023-06-14T13:34:32;3.90;;;2.90;;
35578;SDS011;21687;48.900;9.188;2023-06-14T13:36:58;5.37;;;3.23;;
35578;SDS011;21687;48.900;9.188;2023-06-14T13:39:25;3.40;;;3.03;;
35578;SDS011;21687;48.900;9.188;2023-06-14T13:41:51;4.33;;;3.70;;
35578;SDS011;21687;48.900;9.188;2023-06-14T13:44:18;3.77;;;3.47;;
35578;SDS011;21687;48.900;9.188;2023-06-14T13:46:46;3.80;;;3.40;;
35578;SDS011;21687;48.900;9.188;2023-06-14T13:49:13;3.13;;;2.87;;
35578;SDS011;21687;48.900;9.188;2023-06-14T13:51:39;5.33;;;3.47;;
35578;SDS011;21687;48.900;9.188;2023-06-14T13:54:05;4.27;;;3.67;;
35578;SDS011;21687;48.900;9.188;2023-06-14T13:56:31;3.03;;;2.83;;
35578;SDS011;21687;48.900;9.188;2023-06-14T13:58:58;3.83;;;3.00;;
35578;SDS011;21687;48.900;9.188;2023-06-14T14:01:25;4.30;;;3.20;;
35578;SDS011;21687;48.900;9.188;2023-06-14T14:03:53;3.53;;;3.07;;
35578;SDS011;21687;48.900;9.188;2023-06-14T14:06:20;7.20;;;3.53;;
35578;SDS011;21687;48.900;9.188;2023-06-14T14:08:46;3.93;;;3.53;;
35578;SDS011;21687;48.900;9.188;2023-06-14T14:11:13;3.97;;;3.23;;
35578;SDS011;21687;48.900;9.188;2023-06-14T14:13:41;6.23;;;3.67;;
35578;SDS011;21687;48.900;9.188;2023-06-14T14:16:08;4.70;;;3.30;;
35578;SDS011;21687;48.900;9.188;2023-06-14T14:18:35;4.07;;;3.63;;
35578;SDS011;21687;48.900;9.188;2023-06-14T14:21:02;4.17;;;3.20;;
35578;SDS011;21687;48.900;9.188;2023-06-14T14:23:29;4.47;;;3.00;;
35578;SDS011;21687;48.900;9.188;2023-06-14T14:25:55;4.17;;;3.27;;
35578;SDS011;21687;48.900;9.188;2023-06-14T14:28:22;4.60;;;3.33;;
35578;SDS011;21687;48.900;9.188;2023-06-14T14:30:48;3.50;;;3.20;;
35578;SDS011;21687;48.900;9.188;2023-06-14T14:33:15;5.97;;;3.30;;
35578;SDS011;21687;48.900;9.188;2023-06-14T14:35:45;3.30;;;2.97;;
35578;SDS011;21687;48.900;9.188;2023-06-14T14:38:15;5.77;;;3.23;;
35578;SDS011;21687;48.900;9.188;2023-06-14T14:40:41;4.33;;;3.07;;
35578;SDS011;21687;48.900;9.188;2023-06-14T14:43:09;6.70;;;4.40;;
35578;SDS011;21687;48.900;9.188;2023-06-14T14:45:36;3.87;;;3.40;;
35578;SDS011;21687;48.900;9.188;2023-06-14T14:48:02;4.60;;;3.30;;
35578;SDS011;21687;48.900;9.188;2023-06-14T14:50:29;6.07;;;3.30;;
35578;SDS011;21687;48.900;9.188;2023-06-14T14:52:55;3.93;;;3.20;;
35578;SDS011;21687;48.900;9.188;2023-06-14T14:55:21;4.47;;;3.57;;
35578;SDS011;21687;48.900;9.188;2023-06-14T14:57:48;4.27;;;3.30;;
35578;SDS011;21687;48.900;9.188;2023-06-14T15:00:14;5.57;;;3.20;;
35578;SDS011;21687;48.900;9.188;2023-06-14T15:02:41;7.17;;;3.20;;
35578;SDS011;21687;48.900;9.188;2023-06-14T15:05:07;5.73;;;3.70;;